Time;durP1;ratioP1;P1;durP2;ratioP2;P2;SDS_P1;SDS_P2;PMS_P1;PMS_P2;Temp;Humidity;BMP_temperature;BMP_pressure;BME280_temperature;BME280_humidity;BME280_pressure;Samples;Min_cycle;Max_cycle;Signal;HPM_P1;HPM_P2
2023/06/22 00:01:52;;;;;;;13.35;10.23;;;;;;;21.97;60.72;95644.13;5118238;27;20023;-78
2023/06/22 00:04:18;;;;;;;18.95;11.02;;;;;;;21.92;60.89;95644.31;5143385;27;20109;-79
2023/06/22 00:06:43;;;;;;;13.98;10.52;;;;;;;21.88;61.40;95640.72;5133773;27;20019;-79
2023/06/22 00:09:10;;;;;;;14.90;10.98;;;;;;;21.98;61.42;95666.53;5130151;27;20034;-79
2023/06/22 00:11:38;;;;;;;17.02;11.10;;;;;;;21.96;61.40;95669.56;5152164;27;20031;-79
2023/06/22 00:14:04;;;;;;;13.48;10.77;;;;;;;21.83;61.64;95662.53;5111307;27;20113;-78
2023/06/22 00:16:31;;;;;;;13.02;9.98;;;;;;;21.65;62.00;95636.84;5132833;27;20054;-79
2023/06/22 00:19:00;;;;;;;17.48;10.80;;;;;;;21.56;62.26;95629.59;5132871;27;20037;-78
2023/06/22 00:21:28;;;;;;;18.80;10.88;;;;;;;21.46;62.30;95613.03;5133589;27;20522;-78
2023/06/22 00:23:54;;;;;;;14.63;11.07;;;;;;;21.01;62.45;95550.88;5129457;27;20031;-79
2023/06/22 00:26:20;;;;;;;14.02;10.93;;;;;;;21.29;62.51;95600.47;5151564;27;20110;-78
2023/06/22 00:28:46;;;;;;;14.50;11.00;;;;;;;21.24;62.87;95599.91;5143834;27;20030;-78
2023/06/22 00:31:11;;;;;;;19.00;11.57;;;;;;;21.45;62.69;95624.94;5112533;27;20027;-78
2023/06/22 00:33:37;;;;;;;18.52;11.18;;;;;;;21.41;63.04;95630.22;5112672;27;20035;-78
2023/06/22 00:36:02;;;;;;;15.40;10.80;;;;;;;21.38;62.99;95622.00;5128073;27;20529;-78
2023/06/22 00:38:28;;;;;;;19.52;11.20;;;;;;;21.35;62.99;95619.97;5112111;27;20033;-78
2023/06/22 00:40:54;;;;;;;17.23;11.13;;;;;;;21.33;62.80;95609.50;5147969;27;20103;-79
2023/06/22 00:43:19;;;;;;;15.68;11.43;;;;;;;21.48;62.71;95640.47;5132903;27;20103;-78
2023/06/22 00:45:45;;;;;;;16.65;10.93;;;;;;;21.27;62.86;95610.84;5132810;27;20037;-78
2023/06/22 00:48:12;;;;;;;17.58;10.90;;;;;;;21.43;63.07;95636.09;5151653;27;20027;-78
2023/06/22 00:50:38;;;;;;;20.48;10.77;;;;;;;21.22;63.23;95607.53;5132632;27;20043;-78
2023/06/22 00:53:08;;;;;;;20.75;11.57;;;;;;;21.39;63.36;95639.75;5151306;27;20026;-78
2023/06/22 00:55:37;;;;;;;15.50;10.32;;;;;;;21.26;63.53;95627.34;5132619;27;20031;-78
2023/06/22 00:58:05;;;;;;;15.85;11.13;;;;;;;21.16;64.18;95644.66;5131971;27;20027;-78
2023/06/22 01:00:32;;;;;;;13.75;10.40;;;;;;;21.23;64.21;95641.47;5142072;27;20027;-79
2023/06/22 01:02:58;;;;;;;16.58;11.68;;;;;;;21.25;63.99;95641.94;5117907;27;20023;-78
2023/06/22 01:05:24;;;;;;;18.52;12.07;;;;;;;20.99;63.91;95609.75;5132227;27;20519;-78
2023/06/22 01:08:01;;;;;;;17.65;11.10;;;;;;;21.20;64.13;95661.03;5123561;27;20031;-79
2023/06/22 01:10:54;;;;;;;19.38;11.60;;;;;;;21.22;63.66;95648.78;5142959;27;20050;-79
2023/06/22 01:13:32;;;;;;;14.32;11.20;;;;;;;21.31;63.54;95646.81;5132032;27;20494;-78
2023/06/22 01:16:29;;;;;;;17.02;11.40;;;;;;;21.32;63.86;95651.09;5132450;27;20053;-78
2023/06/22 01:19:00;;;;;;;20.63;12.07;;;;;;;21.13;63.46;95626.47;5120175;27;20094;-78
2023/06/22 01:21:30;;;;;;;18.50;11.03;;;;;;;21.23;63.57;95644.97;5151852;27;20026;-79
2023/06/22 01:24:17;;;;;;;17.80;11.37;;;;;;;21.33;63.54;95662.66;5147665;27;20035;-78
2023/06/22 01:27:00;;;;;;;18.60;11.10;;;;;;;21.01;63.68;95615.59;5108363;28;20278;-79
2023/06/22 01:29:29;;;;;;;19.65;11.45;;;;;;;21.08;64.05;95630.13;5136627;27;20027;-78
2023/06/22 01:31:57;;;;;;;21.48;11.02;;;;;;;21.12;64.38;95644.56;5151091;27;20027;-78
2023/06/22 01:34:23;;;;;;;17.88;12.02;;;;;;;20.79;64.50;95600.53;5131938;27;20061;-78
2023/06/22 01:36:50;;;;;;;22.52;12.95;;;;;;;21.09;64.44;95656.00;5150641;27;20146;-78
2023/06/22 01:39:16;;;;;;;16.48;12.02;;;;;;;21.07;64.62;95660.13;5132333;27;20038;-78
2023/06/22 01:41:42;;;;;;;17.30;12.55;;;;;;;20.95;64.49;95641.97;5132521;27;20026;-78
2023/06/22 01:44:09;;;;;;;29.23;13.73;;;;;;;21.05;64.58;95656.97;5150646;27;20113;-78
2023/06/22 01:46:35;;;;;;;21.50;12.95;;;;;;;20.91;64.59;95632.94;5132476;27;20130;-78
2023/06/22 01:49:02;;;;;;;25.55;15.88;;;;;;;20.82;64.94;95629.53;5120660;27;20501;-78
2023/06/22 01:51:28;;;;;;;22.92;15.20;;;;;;;21.00;64.54;95652.56;5152934;27;20400;-76
2023/06/22 01:53:53;;;;;;;23.30;14.73;;;;;;;20.94;64.53;95640.38;5133918;27;20029;-77
2023/06/22 01:56:19;;;;;;;21.08;14.63;;;;;;;20.92;64.52;95642.63;5133818;27;20121;-77
2023/06/22 01:58:59;;;;;;;22.98;14.68;;;;;;;20.99;64.47;95652.88;5133440;27;20393;-76
2023/06/22 02:01:30;;;;;;;23.48;14.13;;;;;;;20.99;64.40;95656.38;5133719;27;20436;-76
2023/06/22 02:04:08;;;;;;;;;;;;;;;21.09;64.36;95680.25;5116790;27;20034;-76
2023/06/22 02:06:37;;;;;;;22.73;14.52;;;;;;;21.01;64.73;95680.31;5125563;27;20383;-77
2023/06/22 02:09:09;;;;;;;20.10;13.55;;;;;;;21.07;64.53;95687.09;5154704;27;20485;-76
2023/06/22 02:11:37;;;;;;;18.33;12.48;;;;;;;20.88;64.20;95668.66;5157025;27;20126;-76
2023/06/22 02:14:02;;;;;;;28.25;12.52;;;;;;;20.96;64.16;95670.53;5157012;27;20031;-76
2023/06/22 02:16:30;;;;;;;23.48;13.20;;;;;;;21.02;64.08;95681.91;5138037;27;20099;-76
2023/06/22 02:18:57;;;;;;;22.92;12.70;;;;;;;20.99;64.30;95667.16;5137738;27;20496;-76
2023/06/22 02:21:23;;;;;;;21.50;12.80;;;;;;;20.85;64.55;95645.03;5137551;27;20118;-77
2023/06/22 02:23:49;;;;;;;18.30;12.13;;;;;;;20.78;64.37;95642.88;5137508;27;20057;-77
2023/06/22 02:26:17;;;;;;;17.83;12.77;;;;;;;20.93;64.76;95675.75;5137709;27;20027;-76
2023/06/22 02:28:42;;;;;;;30.45;13.00;;;;;;;20.70;64.70;95667.19;5137716;27;20026;-77
2023/06/22 02:31:07;;;;;;;17.38;11.15;;;;;;;20.44;65.03;95661.13;5137201;27;20549;-76
2023/06/22 02:33:33;;;;;;;21.45;11.95;;;;;;;20.42;64.96;95666.84;5137143;27;20035;-76
2023/06/22 02:35:58;;;;;;;19.10;12.73;;;;;;;20.55;64.45;95632.69;5137881;27;20424;-76
2023/06/22 02:38:24;;;;;;;18.35;11.02;;;;;;;20.84;64.33;95672.31;5155743;27;20026;-77
2023/06/22 02:40:50;;;;;;;15.80;10.75;;;;;;;20.74;64.17;95652.75;5137400;27;20500;-77
2023/06/22 02:43:16;;;;;;;20.38;11.30;;;;;;;20.67;64.05;95646.28;5137282;27;20037;-76
2023/06/22 02:45:41;;;;;;;15.60;10.45;;;;;;;20.64;64.15;95644.22;5137325;27;20026;-77
2023/06/22 02:48:07;;;;;;;17.63;11.85;;;;;;;20.81;64.14;95676.47;5156131;27;20034;-76
2023/06/22 02:50:32;;;;;;;16.85;11.23;;;;;;;20.56;64.47;95645.84;5137142;27;20087;-76
2023/06/22 02:52:58;;;;;;;18.83;11.45;;;;;;;20.70;64.65;95673.34;5155904;27;20027;-76
2023/06/22 02:55:23;;;;;;;18.00;10.80;;;;;;;20.70;64.82;95680.66;5155028;27;20461;-77
2023/06/22 02:57:52;;;;;;;16.15;11.38;;;;;;;20.48;64.79;95646.69;5136656;27;20026;-77
2023/06/22 03:00:19;;;;;;;18.27;11.18;;;;;;;20.68;64.80;95672.09;5136534;27;20041;-77
2023/06/22 03:02:46;;;;;;;16.65;11.30;;;;;;;20.66;65.04;95683.22;5132811;27;20039;-76
2023/06/22 03:05:13;;;;;;;19.92;11.65;;;;;;;20.66;65.22;95682.44;5133325;27;20031;-76
2023/06/22 03:07:42;;;;;;;16.90;11.43;;;;;;;20.55;65.48;95681.19;5133654;27;20038;-77
2023/06/22 03:10:10;;;;;;;17.35;12.18;;;;;;;20.38;65.57;95664.00;5143382;27;20051;-77
2023/06/22 03:12:36;;;;;;;24.02;11.57;;;;;;;20.50;65.74;95681.41;5136148;27;20069;-76
2023/06/22 03:15:01;;;;;;;18.90;11.88;;;;;;;20.29;65.66;95652.44;5155238;27;20443;-77
2023/06/22 03:17:27;;;;;;;22.13;13.32;;;;;;;20.25;65.66;95656.91;5136403;27;20045;-76
2023/06/22 03:19:52;;;;;;;21.73;11.95;;;;;;;20.50;65.67;95684.09;5137005;27;20071;-77
2023/06/22 03:22:17;;;;;;;21.23;11.60;;;;;;;20.54;65.70;95683.09;5136430;27;20035;-77
2023/06/22 03:24:43;;;;;;;20.40;11.98;;;;;;;20.53;65.48;95686.91;5136825;27;20022;-76
2023/06/22 03:27:08;;;;;;;25.95;11.70;;;;;;;20.35;64.56;95691.59;5136575;27;20226;-76
2023/06/22 03:29:34;;;;;;;14.95;10.43;;;;;;;20.54;63.93;95707.34;5155113;27;20548;-76
2023/06/22 03:31:59;;;;;;;19.80;11.18;;;;;;;20.22;63.90;95659.44;5136738;27;20034;-77
2023/06/22 03:34:25;;;;;;;19.75;12.10;;;;;;;20.64;63.29;95709.69;5156073;27;20033;-76
2023/06/22 03:36:50;;;;;;;21.15;11.90;;;;;;;20.78;63.11;95712.16;5155478;27;20037;-76
2023/06/22 03:39:16;;;;;;;18.25;10.88;;;;;;;20.61;63.22;95717.63;5155646;27;20161;-76
2023/06/22 03:41:41;;;;;;;22.92;12.20;;;;;;;20.23;63.26;95671.78;5136503;27;20054;-77
2023/06/22 03:44:10;;;;;;;18.13;11.73;;;;;;;20.51;62.88;95696.44;5135963;27;20037;-77
2023/06/22 03:46:35;;;;;;;23.52;13.00;;;;;;;20.50;63.28;95708.34;5135877;27;20034;-77
2023/06/22 03:49:03;;;;;;;19.85;12.43;;;;;;;20.35;63.40;95701.56;5154942;27;20514;-76
2023/06/22 03:51:28;;;;;;;20.80;11.90;;;;;;;20.54;62.88;95710.03;5135173;27;20023;-76
2023/06/22 03:53:53;;;;;;;23.17;13.20;;;;;;;20.50;62.74;95698.34;5155029;27;20094;-76
2023/06/22 03:56:20;;;;;;;17.77;11.68;;;;;;;20.51;63.41;95737.66;5131878;27;20027;-77
2023/06/22 03:58:46;;;;;;;22.48;11.40;;;;;;;20.39;63.54;95706.00;5134407;27;20505;-80
2023/06/22 04:01:11;;;;;;;21.35;11.57;;;;;;;20.49;63.93;95717.53;5150125;27;20050;-80
2023/06/22 04:03:37;;;;;;;19.30;11.65;;;;;;;20.58;64.00;95735.25;5133288;27;20026;-78
2023/06/22 04:06:03;;;;;;;16.40;11.70;;;;;;;20.31;64.53;95719.44;5150565;27;20121;-79
2023/06/22 04:08:29;;;;;;;17.50;11.73;;;;;;;20.37;64.54;95742.44;5092688;28;20031;-80
2023/06/22 04:10:55;;;;;;;19.08;11.98;;;;;;;20.54;64.27;95741.59;5087734;27;20441;-79
2023/06/22 04:13:20;;;;;;;17.38;12.13;;;;;;;20.60;63.38;95716.84;5128842;27;20031;-79
2023/06/22 04:15:46;;;;;;;20.83;11.43;;;;;;;20.68;62.76;95715.22;5106518;28;20515;-78
2023/06/22 04:18:13;;;;;;;22.55;11.60;;;;;;;20.62;62.66;95703.84;5103938;27;20398;-82
2023/06/22 04:20:39;;;;;;;22.23;12.32;;;;;;;20.61;62.77;95704.94;5099046;27;20031;-82
2023/06/22 04:23:04;;;;;;;17.58;10.98;;;;;;;20.62;62.27;95674.19;5120056;27;20035;-81
2023/06/22 04:25:30;;;;;;;31.42;12.40;;;;;;;20.90;62.46;95711.47;5103582;27;20038;-82
2023/06/22 04:27:56;;;;;;;18.80;12.25;;;;;;;20.88;62.49;95686.75;5121836;27;20038;-82
2023/06/22 04:30:21;;;;;;;23.20;12.73;;;;;;;20.90;62.48;95688.00;5099005;27;20097;-81
2023/06/22 04:32:56;;;;;;;22.88;12.30;;;;;;;20.47;62.69;95615.47;5089051;27;20087;-79
2023/06/22 04:35:24;;;;;;;22.42;11.65;;;;;;;20.85;62.96;95674.69;5110531;27;20119;-78
2023/06/22 04:37:54;;;;;;;22.15;12.60;;;;;;;20.99;63.01;95693.31;5106064;27;20034;-79
2023/06/22 04:40:21;;;;;;;22.67;13.40;;;;;;;21.00;63.02;95687.59;5106149;27;20046;-79
2023/06/22 04:42:52;;;;;;;22.05;13.13;;;;;;;21.12;62.99;95703.88;5102868;27;20027;-80
2023/06/22 04:45:17;;;;;;;22.50;14.27;;;;;;;21.14;62.64;95704.31;5103198;27;20038;-79
2023/06/22 04:47:45;;;;;;;31.13;14.85;;;;;;;21.04;62.75;95687.75;5126891;27;20039;-79
2023/06/22 04:50:13;;;;;;;26.65;14.60;;;;;;;21.09;62.61;95682.94;5090100;27;20027;-79
2023/06/22 04:52:39;;;;;;;34.67;16.42;;;;;;;21.08;62.63;95686.75;5096944;27;20123;-80
2023/06/22 04:55:05;;;;;;;25.45;15.68;;;;;;;21.09;62.76;95695.66;5124970;27;20027;-80
2023/06/22 04:57:32;;;;;;;25.98;15.27;;;;;;;21.01;62.87;95707.28;5122575;27;20400;-80
2023/06/22 05:00:11;;;;;;;29.73;17.08;;;;;;;20.85;63.63;95712.44;5092789;28;20043;-80
2023/06/22 05:02:38;;;;;;;29.35;14.27;;;;;;;21.16;63.10;95723.72;5102660;27;20035;-80
2023/06/22 05:05:06;;;;;;;19.27;14.10;;;;;;;21.02;62.74;95706.16;5122735;27;20058;-81
2023/06/22 05:07:35;;;;;;;22.55;14.18;;;;;;;21.09;62.23;95711.81;5104815;27;20043;-80
2023/06/22 05:10:04;;;;;;;20.90;14.10;;;;;;;21.13;61.86;95710.06;5088989;27;20199;-81
2023/06/22 05:12:31;;;;;;;19.50;14.02;;;;;;;20.96;61.88;95699.38;5129490;27;20509;-80
2023/06/22 05:14:58;;;;;;;21.17;14.25;;;;;;;21.20;60.86;95698.78;5130816;27;20099;-84
2023/06/22 05:17:24;;;;;;;29.38;14.50;;;;;;;21.32;60.62;95705.03;5106315;27;20065;-80
2023/06/22 05:19:50;;;;;;;21.95;13.82;;;;;;;21.18;60.41;95677.53;5102126;27;20118;-80
2023/06/22 05:22:16;;;;;;;25.98;14.68;;;;;;;21.15;60.54;95688.94;5105384;28;20041;-80
2023/06/22 05:24:42;;;;;;;21.58;13.40;;;;;;;21.32;60.49;95713.13;5088276;28;20451;-81
2023/06/22 05:27:08;;;;;;;19.27;13.43;;;;;;;21.53;60.00;95738.19;5105113;28;20031;-80
2023/06/22 05:29:33;;;;;;;23.25;13.98;;;;;;;21.60;60.08;95720.69;5122943;27;20367;-80
2023/06/22 05:31:59;;;;;;;23.85;14.70;;;;;;;21.63;60.06;95712.72;5116985;27;20416;-80
2023/06/22 05:34:25;;;;;;;26.90;15.15;;;;;;;21.49;60.26;95725.72;5117068;27;20042;-87
2023/06/22 05:36:51;;;;;;;21.58;13.65;;;;;;;21.72;59.71;95742.34;5107792;27;20092;-81
2023/06/22 05:39:16;;;;;;;18.50;13.73;;;;;;;21.64;59.28;95710.81;5105638;27;20114;-80
2023/06/22 05:41:47;;;;;;;24.23;14.13;;;;;;;21.89;59.17;95745.69;5094279;27;20848;-81
2023/06/22 05:44:12;;;;;;;24.47;16.30;;;;;;;21.77;59.32;95721.34;5114182;27;20023;-80
2023/06/22 05:46:44;;;;;;;26.27;15.40;;;;;;;21.88;58.76;95754.13;5105103;27;20384;-81
2023/06/22 05:49:11;;;;;;;24.48;14.80;;;;;;;21.50;57.87;95714.59;5099829;27;20035;-80
2023/06/22 05:51:36;;;;;;;30.95;15.70;;;;;;;21.78;57.50;95728.31;5105515;27;20077;-81
2023/06/22 05:54:03;;;;;;;29.75;15.23;;;;;;;21.83;57.61;95717.31;5099183;27;20337;-81
2023/06/22 05:56:28;;;;;;;27.55;15.05;;;;;;;21.99;58.21;95735.63;5095152;27;20613;-81
2023/06/22 05:58:54;;;;;;;21.33;12.90;;;;;;;22.21;58.20;95752.25;5098927;27;20030;-81
2023/06/22 06:01:20;;;;;;;24.48;14.15;;;;;;;22.18;58.14;95742.13;5108711;27;20023;-80
2023/06/22 06:03:45;;;;;;;20.45;13.23;;;;;;;22.36;57.90;95748.13;5102924;27;20024;-79
2023/06/22 06:06:12;;;;;;;21.20;13.20;;;;;;;22.22;57.63;95748.41;5132534;27;20031;-79
2023/06/22 06:08:39;;;;;;;22.95;12.95;;;;;;;21.97;57.10;95681.94;5112434;27;20035;-79
2023/06/22 06:11:04;;;;;;;18.55;13.68;;;;;;;22.33;57.24;95751.50;5110996;27;20055;-79
2023/06/22 06:13:29;;;;;;;21.88;14.23;;;;;;;22.22;57.33;95701.69;5100773;27;20098;-79
2023/06/22 06:15:56;;;;;;;20.90;15.70;;;;;;;22.46;57.33;95744.19;5111324;27;20038;-79
2023/06/22 06:18:22;;;;;;;27.98;16.20;;;;;;;22.39;57.88;95731.25;5120309;27;20233;-79
2023/06/22 06:20:47;;;;;;;26.50;16.42;;;;;;;22.51;57.91;95733.97;5130313;27;20029;-79
2023/06/22 06:23:12;;;;;;;21.25;14.63;;;;;;;22.58;57.67;95726.06;5134414;27;20110;-79
2023/06/22 06:25:38;;;;;;;19.10;14.90;;;;;;;22.26;57.61;95656.69;5111741;27;20026;-79
2023/06/22 06:28:04;;;;;;;16.35;13.70;;;;;;;22.84;57.78;95739.31;5134034;27;20068;-79
2023/06/22 06:30:30;;;;;;;20.92;14.32;;;;;;;22.60;57.75;95696.00;5104528;27;20027;-79
2023/06/22 06:32:55;;;;;;;22.65;13.82;;;;;;;22.64;57.58;95678.00;5111982;27;20023;-79
2023/06/22 06:35:21;;;;;;;19.70;13.60;;;;;;;23.16;57.62;95740.31;5116251;27;20035;-78
2023/06/22 06:37:49;;;;;;;24.73;15.70;;;;;;;23.15;56.80;95732.53;5112103;27;20729;-79
2023/06/22 06:40:16;;;;;;;19.75;13.98;;;;;;;23.23;56.28;95727.00;5103731;27;20031;-79
2023/06/22 06:42:45;;;;;;;22.15;15.07;;;;;;;23.23;56.02;95713.50;5123529;27;21296;-79
2023/06/22 06:45:23;;;;;;;22.65;13.75;;;;;;;23.12;55.73;95685.31;5114468;27;20026;-79
2023/06/22 06:47:50;;;;;;;24.40;14.88;;;;;;;23.33;55.48;95693.28;5113767;27;20766;-79
2023/06/22 06:50:16;;;;;;;21.13;14.10;;;;;;;23.38;55.74;95680.31;5137411;27;20084;-79
2023/06/22 06:52:42;;;;;;;19.60;12.70;;;;;;;23.76;55.51;95716.97;5107657;27;20038;-79
2023/06/22 06:55:11;;;;;;;23.00;14.55;;;;;;;23.56;54.81;95683.56;5120394;27;20027;-79
2023/06/22 06:57:38;;;;;;;18.95;13.57;;;;;;;23.95;53.99;95700.91;5092341;27;20797;-79
2023/06/22 07:00:11;;;;;;;22.15;12.63;;;;;;;24.08;53.91;95710.53;5097836;27;20160;-79
2023/06/22 07:02:39;;;;;;;24.45;13.27;;;;;;;24.10;53.75;95697.44;5102293;27;20186;-79
2023/06/22 07:05:05;;;;;;;18.08;12.57;;;;;;;24.26;53.71;95702.88;5099139;27;20024;-80
2023/06/22 07:07:31;;;;;;;20.63;13.07;;;;;;;24.19;54.01;95689.91;5098819;27;20034;-79
2023/06/22 07:09:57;;;;;;;21.52;12.75;;;;;;;24.15;54.53;95666.56;5111109;27;20130;-80
2023/06/22 07:12:23;;;;;;;40.80;12.70;;;;;;;24.42;54.24;95694.78;5098912;27;20569;-79
2023/06/22 07:14:50;;;;;;;21.60;12.73;;;;;;;24.56;54.09;95701.31;5084101;27;20039;-80
2023/06/22 07:17:15;;;;;;;17.30;12.60;;;;;;;24.48;53.88;95690.69;5137791;27;20043;-79
2023/06/22 07:19:42;;;;;;;19.33;12.15;;;;;;;24.48;54.08;95691.47;5104465;27;20068;-80
2023/06/22 07:22:08;;;;;;;16.42;13.00;;;;;;;24.38;53.87;95689.28;5112272;27;20159;-79
2023/06/22 07:24:34;;;;;;;25.77;13.52;;;;;;;24.53;54.50;95709.38;5115792;27;20141;-80
2023/06/22 07:26:59;;;;;;;21.33;13.20;;;;;;;24.53;54.11;95712.09;5108452;27;20097;-80
2023/06/22 07:29:26;;;;;;;22.45;13.00;;;;;;;24.31;54.37;95672.03;5095531;27;20043;-79
2023/06/22 07:31:52;;;;;;;25.20;13.48;;;;;;;24.20;54.49;95650.06;5099681;27;20042;-79
2023/06/22 07:34:17;;;;;;;23.92;13.77;;;;;;;24.64;55.12;95699.59;5108170;27;20815;-79
2023/06/22 07:36:44;;;;;;;23.00;12.75;;;;;;;24.74;54.88;95709.91;5108079;27;20037;-81
2023/06/22 07:39:09;;;;;;;21.88;13.60;;;;;;;24.71;54.70;95690.84;5100597;27;20061;-77
2023/06/22 07:41:35;;;;;;;21.52;13.32;;;;;;;24.85;54.37;95710.97;5099050;27;20051;-78
2023/06/22 07:44:03;;;;;;;20.05;12.50;;;;;;;24.47;53.00;95683.69;5110258;27;20118;-78
2023/06/22 07:46:30;;;;;;;27.45;13.57;;;;;;;24.56;52.97;95695.16;5100775;27;20219;-78
2023/06/22 07:48:56;;;;;;;21.02;13.35;;;;;;;24.17;52.32;95623.66;5099419;27;20206;-78
2023/06/22 07:51:21;;;;;;;27.70;14.07;;;;;;;24.70;52.63;95684.63;5102202;27;20087;-78
2023/06/22 07:53:47;;;;;;;19.83;12.82;;;;;;;24.45;52.36;95631.72;5103383;27;20432;-78
2023/06/22 07:56:13;;;;;;;27.95;11.55;;;;;;;25.01;50.94;95710.19;5120617;27;21210;-78
2023/06/22 07:58:39;;;;;;;24.38;12.60;;;;;;;25.21;50.49;95714.53;5104531;27;20022;-80
2023/06/22 08:01:04;;;;;;;21.20;12.43;;;;;;;25.01;51.13;95686.56;5113426;27;20030;-79
2023/06/22 08:03:30;;;;;;;22.10;12.98;;;;;;;24.68;51.19;95651.66;5103987;27;20023;-82
2023/06/22 08:05:55;;;;;;;21.10;13.82;;;;;;;24.77;50.55;95649.53;5112120;27;20486;-81
2023/06/22 08:08:21;;;;;;;30.65;13.13;;;;;;;24.97;50.40;95647.69;5101357;27;20055;-82
2023/06/22 08:10:47;;;;;;;17.40;12.98;;;;;;;25.45;50.55;95678.19;5098713;27;20628;-80
2023/06/22 08:13:12;;;;;;;22.70;12.40;;;;;;;25.46;50.66;95687.91;5101578;27;20039;-82
2023/06/22 08:15:38;;;;;;;25.85;12.93;;;;;;;25.56;50.33;95676.47;5098173;27;21482;-81
2023/06/22 08:18:03;;;;;;;29.77;14.18;;;;;;;25.64;50.47;95662.72;5096878;27;20505;-81
2023/06/22 08:20:30;;;;;;;30.08;14.77;;;;;;;25.84;50.37;95679.03;5099453;27;20525;-81
2023/06/22 08:22:57;;;;;;;28.95;16.40;;;;;;;25.92;49.67;95656.28;5115463;27;20333;-81
2023/06/22 08:25:23;;;;;;;33.42;14.43;;;;;;;26.04;49.57;95677.84;5095372;27;20323;-80
2023/06/22 08:27:49;;;;;;;25.58;14.85;;;;;;;25.84;49.38;95649.91;5109447;27;20046;-81
2023/06/22 08:30:15;;;;;;;29.27;14.73;;;;;;;26.13;49.25;95673.75;5113666;27;20493;-81
2023/06/22 08:32:41;;;;;;;24.63;14.10;;;;;;;26.16;49.05;95671.47;5106911;27;20037;-82
2023/06/22 08:35:08;;;;;;;25.55;14.00;;;;;;;26.20;48.91;95645.13;5095464;27;20035;-81
2023/06/22 08:37:35;;;;;;;25.77;14.15;;;;;;;25.93;49.02;95619.81;5095592;27;20055;-81
2023/06/22 08:40:08;;;;;;;34.58;14.68;;;;;;;26.36;49.38;95667.56;5121564;27;20050;-81
2023/06/22 08:42:33;;;;;;;22.92;12.55;;;;;;;26.23;48.01;95658.78;5111620;27;20046;-80
2023/06/22 08:44:59;;;;;;;25.48;12.88;;;;;;;26.29;47.47;95654.66;5096595;27;20023;-81
2023/06/22 08:47:25;;;;;;;23.83;12.98;;;;;;;26.56;47.49;95665.56;5113347;27;20034;-79
2023/06/22 08:49:50;;;;;;;20.88;12.23;;;;;;;26.37;47.38;95648.19;5110902;27;20084;-81
2023/06/22 08:52:17;;;;;;;22.70;11.93;;;;;;;26.43;47.76;95649.44;5102701;27;20046;-81
2023/06/22 08:54:43;;;;;;;24.48;13.07;;;;;;;26.44;48.37;95661.91;5111999;27;20031;-80
2023/06/22 08:57:09;;;;;;;25.52;14.13;;;;;;;26.43;47.94;95633.13;5118385;27;20031;-80
2023/06/22 08:59:35;;;;;;;21.13;12.25;;;;;;;26.52;48.78;95638.31;5114277;27;20482;-82
2023/06/22 09:02:00;;;;;;;26.00;12.48;;;;;;;26.39;48.53;95659.50;5117321;27;20023;-80
2023/06/22 09:04:26;;;;;;;34.00;13.25;;;;;;;26.47;48.32;95644.09;5105772;27;20035;-80
2023/06/22 09:06:52;;;;;;;17.70;12.00;;;;;;;26.27;47.73;95626.25;5117203;27;20023;-81
2023/06/22 09:09:21;;;;;;;18.00;11.60;;;;;;;26.39;49.24;95645.91;5102367;27;20315;-80
2023/06/22 09:11:47;;;;;;;18.45;11.75;;;;;;;26.54;49.05;95652.34;5116650;27;20035;-81
2023/06/22 09:14:12;;;;;;;19.40;11.75;;;;;;;26.10;47.94;95616.59;5110745;27;20091;-80
2023/06/22 09:16:38;;;;;;;18.88;11.07;;;;;;;26.54;48.50;95651.56;5105010;27;20565;-80
2023/06/22 09:19:03;;;;;;;13.98;10.30;;;;;;;26.04;49.69;95558.25;5107229;27;20991;-81
2023/06/22 09:21:29;;;;;;;21.38;12.07;;;;;;;26.46;48.25;95610.66;5109991;27;20035;-81
2023/06/22 09:23:54;;;;;;;17.48;11.25;;;;;;;26.53;46.76;95642.63;5105764;27;20023;-81
2023/06/22 09:26:21;;;;;;;18.92;11.15;;;;;;;26.63;46.77;95641.97;5106940;27;20019;-81
2023/06/22 09:28:47;;;;;;;12.45;9.75;;;;;;;26.55;47.87;95640.31;5107512;27;20071;-81
2023/06/22 09:31:15;;;;;;;20.60;10.95;;;;;;;26.32;48.36;95590.63;5121030;27;20054;-81
2023/06/22 09:33:40;;;;;;;19.05;11.48;;;;;;;26.63;50.06;95622.94;5099485;27;20033;-80
2023/06/22 09:36:07;;;;;;;19.08;11.40;;;;;;;27.03;50.06;95662.44;5122212;27;20257;-80
2023/06/22 09:38:38;;;;;;;19.23;11.32;;;;;;;26.76;47.40;95653.47;5069725;27;20725;-80
2023/06/22 09:41:05;;;;;;;14.75;12.18;;;;;;;26.83;47.52;95648.94;5088067;27;20572;-80
2023/06/22 09:43:32;;;;;;;15.80;11.10;;;;;;;27.15;48.36;95654.88;5105274;27;20321;-80
2023/06/22 09:45:57;;;;;;;15.00;10.43;;;;;;;27.18;48.17;95575.16;5101052;27;20051;-80
2023/06/22 09:48:23;;;;;;;13.65;10.93;;;;;;;28.20;44.26;95618.38;5098580;27;20023;-80
2023/06/22 09:50:50;;;;;;;16.52;11.10;;;;;;;28.36;42.29;95547.22;5117950;27;20023;-80
2023/06/22 09:53:16;;;;;;;19.75;12.02;;;;;;;29.69;40.98;95634.97;5125898;27;20042;-80
2023/06/22 09:55:41;;;;;;;15.25;10.60;;;;;;;30.91;39.07;95638.31;5107502;27;20031;-80
2023/06/22 09:58:07;;;;;;;19.48;10.75;;;;;;;31.48;38.43;95640.19;5131707;27;20525;-80
2023/06/22 10:00:32;;;;;;;17.08;10.23;;;;;;;32.11;36.45;95615.22;5125991;27;20042;-80
2023/06/22 10:02:57;;;;;;;16.33;10.32;;;;;;;32.70;35.55;95600.72;5108063;27;20059;-80
2023/06/22 10:05:23;;;;;;;14.50;9.68;;;;;;;33.60;34.83;95638.66;5107383;27;20349;-81
2023/06/22 10:07:48;;;;;;;15.50;9.07;;;;;;;33.96;35.02;95596.97;5117957;27;20357;-80
2023/06/22 10:10:15;;;;;;;15.65;10.10;;;;;;;34.02;32.68;95631.88;5114218;27;20071;-79
2023/06/22 10:12:54;;;;;;;14.00;8.70;;;;;;;34.51;32.44;95629.59;5123200;27;20118;-84
2023/06/22 10:15:21;;;;;;;16.88;9.35;;;;;;;34.88;31.47;95620.34;5094306;28;20039;-80
2023/06/22 10:17:46;;;;;;;18.88;9.48;;;;;;;35.32;32.23;95612.91;5098812;27;20084;-81
2023/06/22 10:20:12;;;;;;;11.48;7.63;;;;;;;35.86;31.58;95616.94;5143215;27;20601;-82
2023/06/22 10:22:43;;;;;;;9.85;8.35;;;;;;;36.06;30.84;95611.38;5111040;27;20035;-81
2023/06/22 10:25:09;;;;;;;;;;;;;;;36.23;29.68;95615.00;5091326;27;20035;-80
2023/06/22 10:27:35;;;;;;;10.65;7.70;;;;;;;35.43;29.27;95603.22;5103796;27;20346;-81
2023/06/22 10:30:00;;;;;;;10.52;8.25;;;;;;;35.72;29.69;95617.22;5112597;27;20045;-81
2023/06/22 10:32:27;;;;;;;8.57;7.50;;;;;;;35.81;30.31;95622.97;5131598;27;20099;-81
2023/06/22 10:34:53;;;;;;;9.70;7.75;;;;;;;35.78;28.48;95589.94;5104291;27;20058;-81
2023/06/22 10:37:18;;;;;;;13.98;8.20;;;;;;;35.48;28.32;95577.09;5112540;27;20062;-81
2023/06/22 10:39:44;;;;;;;11.15;7.13;;;;;;;36.02;27.58;95615.41;5126289;27;20347;-81
2023/06/22 10:42:09;;;;;;;13.40;7.75;;;;;;;35.72;27.26;95572.31;5102815;27;20031;-81
2023/06/22 10:44:35;;;;;;;12.55;7.22;;;;;;;36.22;27.40;95607.91;5114127;27;20023;-81
2023/06/22 10:47:00;;;;;;;12.88;7.82;;;;;;;36.24;26.78;95606.25;5117517;27;20493;-81
2023/06/22 10:49:25;;;;;;;11.05;8.23;;;;;;;36.14;27.14;95587.16;5123982;27;20489;-79
2023/06/22 10:51:51;;;;;;;9.55;7.60;;;;;;;36.23;28.62;95593.69;5106878;27;20489;-78
2023/06/22 10:54:18;;;;;;;13.15;7.55;;;;;;;36.47;28.98;95604.56;5109792;27;20060;-81
2023/06/22 10:56:44;;;;;;;8.43;6.93;;;;;;;36.31;26.78;95606.13;5126994;27;20555;-81
2023/06/22 10:59:09;;;;;;;8.82;6.95;;;;;;;36.43;27.16;95587.28;5115723;27;20102;-81
2023/06/22 11:01:35;;;;;;;9.30;7.28;;;;;;;36.72;28.15;95593.69;5112535;27;20078;-81
2023/06/22 11:04:00;;;;;;;9.48;7.22;;;;;;;36.55;27.74;95581.84;5135072;27;20023;-81
2023/06/22 11:06:26;;;;;;;14.68;7.28;;;;;;;36.84;26.99;95589.47;5117466;27;20140;-81
2023/06/22 11:08:51;;;;;;;9.88;8.13;;;;;;;37.15;26.61;95603.69;5109661;27;20421;-81
2023/06/22 11:11:19;;;;;;;9.73;6.90;;;;;;;37.34;26.13;95602.75;5113175;27;20139;-81
2023/06/22 11:13:45;;;;;;;14.13;8.25;;;;;;;37.21;26.52;95561.25;5118959;27;20035;-80
2023/06/22 11:16:10;;;;;;;12.55;7.15;;;;;;;37.35;26.25;95577.44;5145659;27;20360;-81
2023/06/22 11:18:36;;;;;;;9.05;7.25;;;;;;;37.51;25.94;95578.59;5107400;28;20465;-81